TAF Text Data
IDs:
Format:
Raw Decoded Include METAR

Data at: 0657 UTC 23 Oct 2018

KFHU 230558Z AUTO 00000KT 10SM FEW170 16/13 A3006 RMK AO2 SLP118 6//// T01560129 50005 $

TAF KFHU 230206Z 2302/2408 16009KT 9999 SCT050 SCT220 QNH3000INS
  BECMG 2315/2316 13009KT 8000 -RA BKN080 QNH3002INS
  BECMG 2318/2319 13012KT 8000 -RA BKN050 QNH2998INS
  BECMG 2320/2321 VRB12G20KT 8000 -RA VCTS BKN050CB QNH2996INS
  TEMPO 2322/2402 VRB25G35KT 6000 -TSRAGR
  BECMG 2402/2403 23009KT 9999 VCSH SCT020 BKN050 OVC200 QNH2999INS TX25/2321Z TN15/2311Z